createdAt,value
2022-09-07T00:51:09.386Z,1.90
2022-09-07T00:53:41.678Z,0.70
2022-09-07T00:56:12.413Z,1.15
2022-09-07T00:58:44.016Z,1.25
2022-09-07T01:01:15.416Z,1.13
2022-09-07T01:03:49.042Z,1.27
2022-09-07T01:06:23.646Z,0.75
2022-09-07T01:08:53.808Z,1.48
2022-09-07T01:11:24.845Z,0.70
2022-09-07T01:13:56.545Z,0.60
2022-09-07T01:16:55.445Z,2.45
2022-09-07T01:19:36.390Z,1.58
2022-09-07T01:22:24.412Z,2.15
2022-09-07T01:25:05.808Z,2.13
2022-09-07T01:27:53.770Z,0.73
2022-09-07T01:30:24.937Z,2.17
2022-09-07T01:32:57.959Z,0.57
2022-09-07T01:35:32.857Z,2.30
2022-09-07T01:38:10.185Z,1.05
2022-09-07T01:40:49.183Z,0.90
2022-09-07T01:43:28.721Z,1.35
2022-09-07T01:46:00.700Z,1.50
2022-09-07T01:48:30.966Z,0.80
2022-09-07T01:51:05.571Z,1.33
2022-09-07T01:53:38.794Z,1.15
2022-09-07T01:56:11.825Z,1.95
2022-09-07T01:58:41.729Z,0.82
2022-09-07T02:01:31.683Z,1.15
2022-09-07T02:04:04.501Z,1.38
2022-09-07T02:06:40.405Z,0.90
2022-09-07T02:09:19.285Z,3.92
2022-09-07T02:11:51.934Z,1.38
2022-09-07T02:14:30.490Z,0.90
2022-09-07T02:17:00.395Z,0.88
2022-09-07T02:19:33.121Z,1.83
2022-09-07T02:22:05.961Z,1.48
2022-09-07T02:24:41.745Z,2.65
2022-09-07T02:27:16.858Z,0.85
2022-09-07T02:29:47.920Z,0.80
2022-09-07T02:32:17.826Z,1.02
2022-09-07T02:34:48.381Z,1.23
2022-09-07T02:37:19.456Z,1.13
2022-09-07T02:39:50.942Z,2.10
2022-09-07T02:42:20.884Z,0.90
2022-09-07T02:44:51.067Z,0.57
2022-09-07T02:47:38.122Z,5.35
2022-09-07T02:50:23.982Z,1.05
2022-09-07T02:53:07.289Z,4.45
2022-09-07T02:55:43.231Z,3.08
2022-09-07T02:58:28.236Z,1.55
2022-09-07T03:01:11.126Z,1.63
2022-09-07T03:03:45.967Z,0.70
2022-09-07T03:06:27.006Z,3.58
2022-09-07T03:08:58.476Z,1.27
2022-09-07T03:11:29.701Z,8.60
2022-09-07T03:14:18.546Z,4.10
2022-09-07T03:16:50.025Z,1.98
2022-09-07T03:19:20.306Z,0.60
2022-09-07T03:21:50.755Z,0.80
2022-09-07T03:24:21.173Z,1.70
2022-09-07T03:26:53.080Z,1.05
2022-09-07T03:29:24.181Z,2.92
2022-09-07T03:31:54.292Z,0.70
2022-09-07T03:34:24.283Z,1.02
2022-09-07T03:36:54.740Z,0.70
2022-09-07T03:39:25.860Z,1.13
2022-09-07T03:41:59.653Z,0.88
2022-09-07T03:44:29.588Z,0.82
2022-09-07T03:46:59.519Z,1.35
2022-09-07T03:49:29.443Z,2.15
2022-09-07T03:52:00.488Z,0.93
2022-09-07T03:54:30.429Z,2.47
2022-09-07T03:57:00.804Z,1.17
2022-09-07T03:59:30.747Z,0.80
2022-09-07T04:02:01.215Z,0.93
2022-09-07T04:04:31.511Z,1.00
2022-09-07T04:07:05.511Z,1.67
2022-09-07T04:09:35.645Z,2.55
2022-09-07T04:12:05.742Z,2.05
2022-09-07T04:14:35.639Z,1.95
2022-09-07T04:17:06.982Z,1.48
2022-09-07T04:19:37.027Z,1.92
2022-09-07T04:22:07.245Z,1.63
2022-09-07T04:24:37.160Z,1.20
2022-09-07T04:27:07.546Z,0.50
2022-09-07T04:29:37.497Z,0.98
2022-09-07T04:32:08.393Z,2.08
2022-09-07T04:34:39.536Z,1.95
2022-09-07T04:37:09.453Z,3.33
2022-09-07T04:39:39.414Z,0.88
2022-09-07T04:42:09.422Z,3.67
2022-09-07T04:44:39.362Z,1.02
2022-09-07T04:47:09.602Z,1.10
2022-09-07T04:49:39.970Z,1.42
2022-09-07T04:52:09.948Z,2.00
2022-09-07T04:54:40.232Z,0.88
2022-09-07T04:57:10.143Z,1.70
2022-09-07T04:59:40.604Z,1.15
2022-09-07T05:02:11.217Z,2.45
2022-09-07T05:04:41.207Z,2.55
2022-09-07T05:07:11.178Z,1.42
2022-09-07T05:09:41.162Z,1.45
2022-09-07T05:12:11.686Z,1.15
2022-09-07T05:14:41.595Z,1.30
2022-09-07T05:17:12.205Z,2.40
2022-09-07T05:19:43.309Z,1.35
2022-09-07T05:22:13.541Z,5.18
2022-09-07T05:24:43.928Z,1.83
2022-09-07T05:27:13.891Z,2.05
2022-09-07T05:32:34.308Z,3.40
2022-09-07T05:35:04.251Z,1.45
2022-09-07T05:37:34.252Z,1.05
2022-09-07T05:40:04.308Z,1.38
2022-09-07T05:42:34.617Z,0.85
2022-09-07T05:45:04.695Z,2.70
2022-09-07T05:47:34.682Z,2.80
2022-09-07T05:50:04.798Z,1.00
2022-09-07T05:52:34.824Z,1.52
2022-09-07T05:55:28.851Z,2.08
2022-09-07T10:25:47.001Z,1.93
2022-09-07T10:28:23.966Z,3.95
2022-09-07T10:31:12.293Z,1.52
2022-09-07T10:37:19.642Z,4.43
2022-09-07T10:40:08.649Z,1.35
2022-09-07T10:45:56.825Z,3.20
2022-09-07T10:48:37.333Z,2.85
2022-09-07T10:51:14.087Z,2.33
2022-09-07T10:56:56.434Z,1.67
2022-09-07T11:00:07.600Z,5.13
2022-09-07T11:02:31.011Z,3.58
2022-09-07T11:56:36.197Z,3.92
2022-09-07T11:59:36.647Z,3.60
2022-09-07T12:02:42.141Z,3.28
2022-09-07T12:05:34.697Z,2.40
2022-09-07T12:08:24.044Z,3.00
2022-09-07T12:11:03.678Z,2.83
2022-09-07T12:13:49.664Z,4.05
2022-09-07T12:16:49.070Z,3.55
2022-09-07T12:19:23.649Z,3.45
2022-09-07T12:21:56.631Z,3.80
2022-09-07T12:24:47.132Z,4.88
2022-09-07T12:27:23.326Z,3.90
2022-09-07T12:29:56.707Z,2.72
2022-09-07T12:33:00.444Z,4.20
2022-09-07T12:35:34.930Z,5.68
2022-09-07T12:38:08.369Z,3.88
2022-09-07T12:40:39.267Z,4.68
2022-09-07T12:43:18.773Z,2.67
2022-09-07T12:45:48.962Z,3.40
2022-09-07T12:48:19.065Z,4.28
2022-09-07T12:51:01.412Z,5.43
2022-09-07T12:53:47.136Z,2.65
2022-09-07T12:56:22.975Z,4.97
2022-09-07T12:59:01.780Z,4.45
2022-09-07T13:01:35.402Z,4.70
2022-09-07T13:04:08.818Z,7.40
2022-09-07T13:09:39.817Z,4.70
2022-09-07T13:15:33.886Z,4.25
2022-09-07T13:18:06.293Z,6.03
2022-09-07T13:20:39.866Z,5.97
2022-09-07T13:23:28.467Z,4.37
2022-09-07T13:26:00.547Z,5.65
2022-09-07T13:28:30.836Z,3.65
2022-09-07T13:31:16.762Z,6.55
2022-09-07T13:33:50.903Z,4.45
2022-09-07T13:36:27.672Z,4.72
2022-09-07T13:38:58.394Z,7.70
2022-09-07T13:41:32.272Z,5.45
2022-09-07T13:44:03.866Z,4.85
2022-09-07T13:46:43.006Z,4.60
2022-09-07T13:49:31.290Z,5.78
2022-09-07T13:52:21.209Z,6.28
2022-09-07T13:55:09.431Z,5.57
2022-09-07T13:57:43.584Z,4.95
2022-09-07T14:00:17.447Z,4.45
2022-09-07T14:02:47.435Z,7.63
2022-09-07T14:05:23.515Z,6.65
2022-09-07T14:07:54.222Z,6.57
2022-09-07T14:10:25.941Z,5.63
2022-09-07T14:13:05.074Z,7.25
2022-09-07T14:16:01.530Z,9.32
2022-09-07T14:18:33.792Z,5.95
2022-09-07T14:21:03.663Z,8.90
2022-09-07T14:23:36.410Z,7.30
2022-09-07T14:26:25.258Z,7.15
2022-09-07T14:28:56.759Z,4.93
2022-09-07T14:31:27.397Z,6.53
2022-09-07T14:34:02.798Z,4.65
2022-09-07T14:36:44.790Z,7.28
2022-09-07T14:39:16.612Z,5.78
2022-09-07T14:41:47.057Z,7.15
2022-09-07T14:44:33.555Z,8.43
2022-09-07T14:47:07.535Z,5.47
2022-09-07T14:49:37.734Z,5.30
2022-09-07T14:52:07.871Z,7.93
2022-09-07T14:54:37.911Z,6.43
2022-09-07T14:57:09.493Z,6.03
2022-09-07T14:59:39.541Z,7.45
2022-09-07T15:02:24.907Z,7.47
2022-09-07T15:05:13.667Z,7.97
2022-09-07T15:07:44.698Z,7.38
2022-09-07T15:10:17.613Z,8.88
2022-09-07T15:12:47.519Z,7.45
2022-09-07T15:15:26.681Z,5.43
2022-09-07T15:18:03.229Z,5.88
2022-09-07T15:20:47.175Z,6.70
2022-09-07T15:23:21.253Z,7.47
2022-09-07T15:25:54.467Z,6.50
2022-09-07T15:34:16.306Z,8.23
2022-09-07T15:36:48.699Z,7.53
2022-09-07T15:39:26.129Z,8.43
2022-09-07T15:41:56.523Z,6.35
2022-09-07T15:44:28.331Z,7.90
2022-09-07T15:49:53.702Z,9.70
2022-09-07T15:52:23.717Z,8.40
2022-09-07T15:54:54.027Z,8.00
2022-09-07T16:00:14.381Z,6.82
2022-09-07T16:05:35.293Z,8.15
2022-09-07T16:11:04.733Z,6.68
2022-09-07T16:13:35.229Z,7.18
2022-09-07T16:16:07.659Z,7.65
2022-09-07T16:18:38.024Z,6.97
2022-09-07T16:21:13.092Z,6.22
2022-09-07T16:23:44.366Z,6.10
2022-09-07T16:26:16.292Z,6.93
2022-09-07T16:28:47.584Z,5.93
2022-09-07T16:31:19.722Z,9.73
2022-09-07T16:33:51.334Z,8.45
2022-09-07T16:36:23.520Z,6.65
2022-09-07T16:39:01.009Z,6.40
2022-09-07T16:41:36.544Z,7.82
2022-09-07T16:44:06.811Z,7.28
2022-09-07T16:46:39.630Z,5.68
2022-09-07T16:49:09.497Z,6.30
2022-09-07T16:51:39.731Z,5.55
2022-09-07T16:54:09.930Z,6.30
2022-09-07T16:56:39.950Z,7.32
2022-09-07T16:59:15.431Z,7.53
2022-09-07T17:01:45.608Z,8.95
2022-09-07T17:04:15.864Z,6.78
2022-09-07T17:06:45.907Z,7.68
2022-09-07T17:09:16.616Z,11.18
2022-09-07T17:11:46.562Z,9.18
2022-09-07T17:14:16.557Z,7.57
2022-09-07T17:16:46.481Z,10.18
2022-09-07T17:19:33.475Z,8.15
2022-09-07T17:22:03.535Z,8.20
2022-09-07T17:24:33.521Z,7.68
2022-09-07T17:27:04.640Z,12.30
2022-09-07T17:29:37.755Z,9.05
2022-09-07T17:32:24.646Z,8.23
2022-09-07T17:34:58.262Z,9.98
2022-09-07T17:37:28.161Z,9.60
2022-09-07T17:39:58.133Z,7.57
2022-09-07T17:45:20.348Z,7.68
2022-09-07T17:47:51.898Z,8.18
2022-09-07T17:50:21.764Z,8.73
2022-09-07T17:52:54.351Z,8.88
2022-09-07T17:55:24.737Z,7.97
2022-09-07T17:57:54.663Z,9.07
2022-09-07T19:45:09.489Z,9.40
2022-09-07T19:47:39.456Z,9.02
2022-09-07T19:50:10.700Z,8.15
2022-09-07T19:52:40.591Z,10.00
2022-09-07T19:55:10.835Z,7.30
2022-09-07T19:57:40.719Z,7.57
2022-09-07T20:00:11.422Z,8.57
2022-09-07T20:02:41.947Z,7.30
2022-09-07T20:05:13.421Z,7.20
2022-09-07T20:07:43.285Z,7.63
2022-09-07T20:10:14.755Z,11.02
2022-09-07T20:12:44.589Z,7.53
2022-09-07T20:15:14.589Z,7.40
2022-09-07T20:17:44.465Z,6.88
2022-09-07T20:20:14.350Z,6.82
2022-09-07T20:22:45.235Z,8.10
2022-09-07T20:25:15.141Z,7.47
2022-09-07T20:27:45.338Z,9.38
2022-09-07T20:30:15.408Z,12.45
2022-09-07T20:32:45.289Z,8.27
2022-09-07T20:35:15.161Z,9.13
2022-09-07T20:37:45.284Z,6.95
2022-09-07T20:40:16.444Z,11.23
2022-09-07T20:42:47.163Z,8.82
2022-09-07T20:45:17.168Z,10.52
2022-09-07T20:47:47.294Z,10.38
2022-09-07T20:50:17.207Z,10.15
2022-09-07T20:52:47.388Z,10.38
2022-09-07T20:55:17.332Z,10.65
2022-09-07T20:57:47.298Z,9.93
2022-09-07T21:00:17.444Z,11.57
2022-09-07T21:02:47.329Z,9.88
2022-09-07T21:05:17.261Z,9.70
2022-09-07T21:07:47.590Z,10.48
2022-09-07T21:10:17.797Z,10.07
2022-09-07T21:12:48.101Z,13.27
2022-09-07T21:15:18.741Z,9.57
2022-09-07T21:17:48.642Z,10.10
2022-09-07T21:20:18.644Z,10.02
2022-09-07T21:22:49.619Z,8.90
2022-09-07T21:25:19.602Z,11.50
2022-09-07T21:27:49.556Z,11.32
2022-09-07T21:30:19.479Z,9.73
2022-09-07T21:32:53.022Z,9.75
2022-09-07T21:35:24.363Z,11.38
2022-09-07T21:37:54.217Z,11.80
2022-09-07T21:40:26.242Z,11.63
2022-09-07T21:42:56.107Z,11.02
2022-09-07T21:45:26.032Z,11.05
2022-09-07T21:47:55.880Z,9.15
2022-09-07T21:50:25.740Z,12.20
2022-09-07T21:52:55.605Z,8.43
2022-09-07T21:55:25.932Z,8.68
2022-09-07T21:57:57.068Z,9.43
2022-09-07T22:00:26.964Z,7.50
2022-09-07T22:02:56.866Z,8.90
2022-09-07T22:05:26.924Z,7.95
2022-09-07T22:07:56.792Z,8.88
2022-09-07T22:10:26.960Z,9.35
2022-09-07T22:12:58.208Z,9.10
2022-09-07T22:15:30.265Z,9.65
2022-09-07T22:18:00.116Z,8.25
2022-09-07T22:20:30.696Z,8.80
2022-09-07T22:23:00.961Z,8.32
2022-09-07T22:25:31.254Z,8.50
2022-09-07T22:28:01.436Z,7.85
2022-09-07T22:30:31.538Z,9.93
2022-09-07T22:33:01.897Z,9.88
2022-09-07T22:35:32.990Z,8.55
2022-09-07T22:38:02.889Z,9.48
2022-09-07T22:40:32.752Z,10.52
2022-09-07T22:43:03.087Z,11.35
2022-09-07T22:45:33.021Z,8.95
2022-09-07T23:03:33.434Z,10.48
2022-09-07T23:06:03.705Z,8.13
2022-09-07T23:12:06.770Z,9.18
2022-09-07T23:21:01.750Z,9.43
2022-09-07T23:23:35.403Z,6.90
2022-09-07T23:26:08.520Z,7.88
2022-09-07T23:28:38.811Z,7.20
2022-09-07T23:31:12.721Z,6.68
